Estaciones cercanas a Meteocoruna.es

 

LECO - La Coruna/Alvedro, Espana
Distancia desde EA1HNP Meteo: NNE 12km
Actualización: 23/06/2024 07:00
Patches of fog, Cubierto
Patches of fog, Cubierto
 Viento del varies
Viento: varies 4 km/h
Temperatura: 16°C
Rocío: 16°C
Humedad: 100%
Barómetro: 1022 hPa
Resumen: Patches of Fog
Nubes: Cubierto
Visibilidad: 2 km
Detalle de nubes: Cubierto 122 m
2024/06/23 05:00 LECO 230500Z VRB02KT 1500 0500NE BCFG OVC004 16/16 Q1022 TEMPO 8000 NSW
LEST - Santiago/Labacolla, Espana
Distancia desde EA1HNP Meteo: S 32km
Actualización: 23/06/2024 07:00
Muy nuboso
Muy nuboso
 Viento del NNE
Viento: NNE 9 km/h
Temperatura: 16°C
Rocío: 15°C
Humedad: 94%
Barómetro: 1023 hPa
Nubes: Muy nuboso
Visibilidad: 10 km
Detalle de nubes: Muy nuboso 122 m
Muy nuboso 610 m
2024/06/23 05:00 LEST 230500Z 02005KT 9999 BKN004 BKN020 16/15 Q1023 NOSIG